Fecha, hora, temperatura, viento dirección y velocidad, humedad y presión.

  • 19-03-2019 23:00:00 | 11.90°C | Este |11.00 km/h | 69.00% | 1022.50 hPa
  • 19-03-2019 22:00:00 | 11.90°C | Este |15.00 km/h | 67.00% | 1022.20 hPa
  • 19-03-2019 21:00:00 | 11.90°C | Este |20.00 km/h | 68.00% | 1021.60 hPa
  • 19-03-2019 20:00:00 | 12.20°C | Este |22.00 km/h | 67.00% | 1020.80 hPa
  • 19-03-2019 19:00:00 | 13.20°C | Este |16.00 km/h | 60.00% | 1020.10 hPa
  • 19-03-2019 18:00:00 | 14.30°C | Este |28.00 km/h | 55.00% | 1019.10 hPa
  • 19-03-2019 17:00:00 | 14.80°C | Este |26.00 km/h | 51.00% | 1018.80 hPa
  • 19-03-2019 16:00:00 | 14.80°C | Este |20.00 km/h | 57.00% | 1018.80 hPa
  • 19-03-2019 15:00:00 | 14.50°C | Sudeste |16.00 km/h | 54.00% | 1018.60 hPa
  • 19-03-2019 14:00:00 | 15.00°C | Este |15.00 km/h | 45.00% | 1018.50 hPa
  • 19-03-2019 13:00:00 | 15.70°C | Este |17.00 km/h | 35.00% | 1018.80 hPa
  • 19-03-2019 12:00:00 | 17.10°C | Nordeste |10.00 km/h | 31.00% | 1018.50 hPa
  • 19-03-2019 11:00:00 | 15.60°C | Norte |14.00 km/h | 33.00% | 1018.80 hPa
  • 19-03-2019 10:00:00 | 14.00°C | Nordeste |8.00 km/h | 54.00% | 1018.90 hPa
  • 19-03-2019 09:00:00 | 12.50°C | Oeste |6.00 km/h | 65.00% | 1019.00 hPa
  • 19-03-2019 08:00:00 | 10.70°C | Sur |3.00 km/h | 70.00% | 1018.90 hPa
  • 19-03-2019 07:00:00 | 10.20°C | Sudoeste |7.00 km/h | 72.00% | 1018.60 hPa
  • 19-03-2019 06:00:00 | 10.20°C | Oeste |10.00 km/h | 70.00% | 1018.60 hPa
  • 19-03-2019 05:00:00 | 9.70°C | Noroeste |11.00 km/h | 73.00% | 1018.40 hPa
  • 19-03-2019 04:00:00 | 9.80°C | Oeste |13.00 km/h | 72.00% | 1018.80 hPa
  • 19-03-2019 03:00:00 | 9.60°C | Oeste |9.00 km/h | 73.00% | 1019.60 hPa
  • 19-03-2019 02:00:00 | 9.30°C | Noroeste |9.00 km/h | 74.00% | 1020.20 hPa
  • 19-03-2019 01:00:00 | 9.80°C | Noroeste |10.00 km/h | 74.00% | 1020.60 hPa
  • 19-03-2019 00:00:00 | 10.00°C | Noroeste |11.00 km/h | 73.00% | 1020.90 hPa
    • diseño web asturias Información sobre el estado de las mareas, altura de la marejada, temperatura del agua y otros datos de Gijón en Asturias.

      Surf Gijón